Rutherfordton, NC

4:35 AM EDT on October 19, 2017 (GMT -0400)
Rutherford County-Marchman

Weather History for KFQD - December, 2013

Change the Weather History Date:

Thursday, December 5, 2013

  Actual Average (KAVL) Record (KAVL)
Temperature  
Mean Temperature 62 °F -  
Max Temperature 66 °F 53 °F 72 °F (1998)
Min Temperature 57 °F 28 °F 13 °F (1893)
Degree Days  
Heating Degree Days 4    
Growing Degree Days 12 (Base 50)    
Moisture  
Dew Point 62 °F    
Average Humidity 99    
Maximum Humidity 100    
Minimum Humidity 93    
Precipitation  
Precipitation 0.21 in - - ()
Sea Level Pressure  
Sea Level Pressure 30.06 in    
Wind  
Wind Speed 4 mph (South)    
Max Wind Speed 15 mph    
Max Gust Speed 25 mph    
Visibility 4 miles    
Events Fog , Rain    
Averages and records for this station are not official NWS values.
T = Trace of Precipitation, MM = Missing Value Source: NWS Daily Summary

Daily Weather History Graph

Daily Weather History Graph

Search for Another Location

Airport or City:

Trip Planner

Search our weather history database for the weather conditions in past years. The results will help you decide how hot, cold, wet, or windy it might be!

Date:

Astronomy

Dec. 05, 2013 Rise Set
Actual Time 7:22 AM EST 5:14 PM EST
Civil Twilight 6:54 AM EST 5:42 PM EST
Nautical Twilight 6:22 AM EST 6:14 PM EST
Astronomical Twilight 5:51 AM EST 6:45 PM EST
Moon 9:44 AM EST (12/5) 8:30 PM EST (12/5)
Length of Visible Light 10h 48m
Length of Day
9h 52m
Waxing Crescent, 10% of the Moon is Illuminated
Dec 5
Waxing Crescent
Dec 9
First Quarter
Dec 17
Full
Dec 25
Last Quarter
Jan 1
New

Hourly Weather History & Observations

Time (EST) Temp. Dew Point Humidity Pressure Visibility Wind Dir Wind Speed Gust Speed Precip Events Conditions
12:15 AM 57.2 °F 57.2 °F 100% 30.09 in 0.2 mi SSE 4.6 mph - N/A Fog Fog
12:35 AM 57.6 °F 57.6 °F 100% 30.08 in 0.2 mi SSE 4.6 mph - N/A Fog Fog
12:55 AM 57.7 °F 57.7 °F 100% 30.08 in 0.2 mi South 3.5 mph - N/A Fog Fog
1:15 AM 58.1 °F 58.1 °F 100% 30.08 in 0.2 mi South 3.5 mph - N/A Fog Fog
1:35 AM 58.5 °F 58.5 °F 100% 30.07 in 0.5 mi SSE 5.8 mph - N/A Fog Fog
1:55 AM 58.5 °F 58.5 °F 100% 30.07 in 0.2 mi Calm Calm - N/A Fog Fog
2:15 AM 58.5 °F 58.5 °F 100% 30.07 in 0.2 mi Calm Calm - 0.01 in Fog Fog
2:35 AM 58.6 °F 58.6 °F 100% 30.07 in 0.2 mi SSE 3.5 mph - 0.01 in   Drizzle
2:55 AM 58.6 °F 58.6 °F 100% 30.06 in 0.8 mi Calm Calm - 0.01 in   Drizzle
3:15 AM 58.8 °F 58.8 °F 100% 30.07 in 1.0 mi Calm Calm - 0.01 in   Heavy Drizzle
3:35 AM 59.0 °F 59.0 °F 100% 30.06 in 1.0 mi Calm Calm - 0.02 in   Heavy Drizzle
3:55 AM 59.0 °F 59.0 °F 100% 30.06 in 1.2 mi SSE 3.5 mph - 0.03 in   Drizzle
4:15 AM 59.0 °F 59.0 °F 100% 30.06 in 2.5 mi SE 3.5 mph - N/A   Overcast
4:35 AM 59.0 °F 59.0 °F 100% 30.06 in 2.0 mi SE 3.5 mph - 0.01 in   Overcast
4:55 AM 59.0 °F 59.0 °F 100% 30.06 in 2.0 mi SSE 4.6 mph - 0.01 in   Overcast
5:15 AM 59.0 °F 59.0 °F 100% 30.06 in 2.0 mi South 3.5 mph - N/A   Overcast
5:35 AM 59.0 °F 59.0 °F 100% 30.06 in 1.8 mi South 3.5 mph - N/A   Overcast
5:55 AM 59.4 °F 59.4 °F 100% 30.07 in 3.0 mi Calm Calm - N/A   Overcast
6:15 AM 59.4 °F 59.4 °F 100% 30.07 in 2.5 mi South 3.5 mph - N/A Rain Rain
6:35 AM 59.4 °F 59.4 °F 100% 30.08 in 0.8 mi Calm Calm - N/A   Overcast
6:55 AM 59.4 °F 59.4 °F 100% 30.08 in 0.5 mi Calm Calm - N/A Fog Fog
7:15 AM 59.4 °F 59.4 °F 100% 30.09 in 0.5 mi Calm Calm - N/A Fog Fog
7:35 AM 59.4 °F 59.4 °F 100% 30.09 in 0.2 mi Calm Calm - N/A Fog Fog
7:55 AM 59.9 °F 59.9 °F 100% 30.10 in 0.5 mi SSE 3.5 mph - N/A Fog Fog
8:15 AM 59.9 °F 59.9 °F 100% 30.11 in 0.8 mi Calm Calm - N/A   Overcast
8:35 AM 60.1 °F 60.1 °F 100% 30.11 in 2.5 mi Calm Calm - N/A   Overcast
8:55 AM 60.4 °F 60.4 °F 100% 30.11 in 2.5 mi Calm Calm - N/A   Overcast
9:15 AM 60.8 °F 60.8 °F 100% 30.11 in 1.8 mi Calm Calm - N/A   Overcast
9:35 AM 61.2 °F 61.2 °F 100% 30.10 in 0.8 mi South 4.6 mph - N/A   Overcast
9:55 AM 61.3 °F 61.3 °F 100% 30.11 in 1.0 mi South 3.5 mph - N/A   Overcast
10:15 AM 61.7 °F 61.7 °F 100% 30.12 in 2.5 mi SW 3.5 mph - N/A   Overcast
10:35 AM 61.7 °F 61.7 °F 100% 30.11 in 1.5 mi SW 3.5 mph - N/A   Overcast
10:55 AM 61.7 °F 61.7 °F 100% 30.12 in 1.0 mi Calm Calm - N/A   Overcast
11:15 AM 60.8 °F 60.8 °F 100% 30.11 in 0.2 mi Calm Calm - N/A Fog Fog
11:35 AM 61.2 °F 61.2 °F 100% 30.10 in 0.2 mi SSW 3.5 mph - N/A Fog Fog
11:55 AM 62.1 °F 62.1 °F 100% 30.09 in 0.5 mi Calm Calm - N/A Fog Fog
12:15 PM 62.2 °F 62.2 °F 100% 30.09 in 1.0 mi SSW 5.8 mph - N/A   Overcast
12:35 PM 62.8 °F 62.8 °F 100% 30.08 in 1.5 mi South 5.8 mph - N/A   Overcast
12:55 PM 62.6 °F 62.6 °F 100% 30.07 in 5.0 mi South 4.6 mph - N/A   Overcast
1:15 PM 62.8 °F 62.8 °F 100% 30.06 in 5.0 mi South 5.8 mph - N/A   Overcast
1:35 PM 63.5 °F 63.5 °F 100% 30.06 in 10.0 mi SSW 4.6 mph - N/A   Overcast
1:55 PM 63.5 °F 63.3 °F 99% 30.05 in 7.0 mi SSW 3.5 mph - N/A   Overcast
2:15 PM 64.0 °F 63.0 °F 96% 30.05 in 10.0 mi South 6.9 mph - N/A   Overcast
2:35 PM 64.4 °F 63.0 °F 95% 30.03 in 10.0 mi South 6.9 mph - N/A   Overcast
2:55 PM 64.6 °F 63.5 °F 96% 30.03 in 10.0 mi South 3.5 mph - N/A   Overcast
3:15 PM 64.9 °F 63.3 °F 94% 30.03 in 10.0 mi South 6.9 mph - N/A   Overcast
3:35 PM 65.3 °F 63.1 °F 93% 30.02 in 10.0 mi South 5.8 mph - N/A   Overcast
3:55 PM 65.5 °F 63.5 °F 93% 30.03 in 10.0 mi SSW 6.9 mph - N/A   Overcast
4:15 PM 65.3 °F 63.3 °F 93% 30.03 in 10.0 mi South 8.1 mph - N/A   Overcast
4:35 PM 65.3 °F 63.5 °F 94% 30.04 in 10.0 mi South 5.8 mph - N/A   Overcast
4:55 PM 64.6 °F 63.1 °F 95% 30.04 in 7.0 mi South 4.6 mph - N/A   Overcast
5:15 PM 64.6 °F 63.1 °F 95% 30.04 in 10.0 mi South 6.9 mph - N/A   Overcast
5:35 PM 64.4 °F 63.1 °F 96% 30.05 in 10.0 mi South 5.8 mph - N/A   Overcast
5:55 PM 64.4 °F 63.1 °F 96% 30.05 in 7.0 mi South 5.8 mph - N/A   Overcast
6:15 PM 64.0 °F 63.1 °F 97% 30.05 in 7.0 mi South 4.6 mph - N/A   Overcast
6:35 PM 63.7 °F 63.1 °F 98% 30.05 in 5.0 mi SSE 6.9 mph - N/A   Overcast
6:55 PM 63.5 °F 63.1 °F 99% 30.05 in 5.0 mi SSE 9.2 mph - N/A Rain Rain
7:15 PM 63.5 °F 63.5 °F 100% 30.05 in 3.0 mi South 8.1 mph - N/A   Light Drizzle
7:35 PM 63.5 °F 63.5 °F 100% 30.04 in 3.0 mi SSE 5.8 mph - N/A Rain Rain
7:55 PM 63.5 °F 63.5 °F 100% 30.05 in 3.0 mi SSE 4.6 mph - 0.01 in Rain Rain
8:15 PM 63.5 °F 63.5 °F 100% 30.04 in 4.0 mi SSE 8.1 mph - 0.02 in Rain Light Rain
8:35 PM 63.5 °F 63.5 °F 100% 30.04 in 4.0 mi SSE 6.9 mph - 0.03 in Rain Heavy Rain
8:55 PM 63.9 °F 63.9 °F 100% 30.03 in 3.0 mi SSE 8.1 mph - 0.11 in Rain Heavy Rain
9:15 PM 63.9 °F 63.9 °F 100% 30.02 in 5.0 mi SSE 8.1 mph - N/A Rain Light Rain
9:35 PM 64.2 °F 64.0 °F 99% 30.01 in 5.0 mi SSE 12.7 mph 17.3 mph 0.01 in Rain Light Rain
9:55 PM 64.6 °F 64.6 °F 100% 30.02 in 4.0 mi South 15.0 mph 19.6 mph 0.02 in Rain Rain
10:15 PM 65.5 °F 65.3 °F 99% 30.02 in 5.0 mi South 8.1 mph 25.3 mph N/A Rain Rain
10:35 PM 66.2 °F 65.5 °F 98% 30.01 in 7.0 mi South 12.7 mph 25.3 mph N/A Rain Light Rain
10:55 PM 66.2 °F 65.5 °F 98% 30.02 in 7.0 mi South 12.7 mph 24.2 mph 0.01 in Rain Light Rain
11:15 PM 66.4 °F 65.7 °F 98% 30.02 in 7.0 mi South 11.5 mph 20.7 mph N/A   Light Drizzle
11:35 PM 66.6 °F 65.8 °F 98% 30.02 in 7.0 mi South 11.5 mph 23.0 mph N/A Rain Light Rain
11:55 PM 66.6 °F 65.8 °F 98% 30.01 in 7.0 mi South 10.4 mph - 0.01 in Rain Light Rain